sensor_id;sensor_type;location;lat;lon;timestamp;pressure;altitude;pressure_sealevel;temperature;humidity
52797;BME280;38666;43.348;12.584;2023-05-03T07:16:24;95817.88;;;14.85;83.15
52797;BME280;38666;43.348;12.584;2023-05-03T07:18:51;95830.56;;;14.59;85.26
52797;BME280;38666;43.348;12.584;2023-05-03T07:21:16;95829.59;;;14.69;82.40
52797;BME280;38666;43.348;12.584;2023-05-03T07:23:42;95834.66;;;14.50;84.40
52797;BME280;38666;43.348;12.584;2023-05-03T07:26:09;95834.00;;;14.42;84.72
52797;BME280;38666;43.348;12.584;2023-05-03T07:28:34;95841.25;;;14.32;85.61
52797;BME280;38666;43.348;12.584;2023-05-03T07:31:01;95842.09;;;14.29;85.95
52797;BME280;38666;43.348;12.584;2023-05-03T07:33:27;95837.28;;;14.33;85.66
52797;BME280;38666;43.348;12.584;2023-05-03T07:35:52;95842.72;;;14.17;86.48
52797;BME280;38666;43.348;12.584;2023-05-03T07:38:18;95847.13;;;14.11;86.23
52797;BME280;38666;43.348;12.584;2023-05-03T07:40:43;95834.59;;;14.10;87.22
52797;BME280;38666;43.348;12.584;2023-05-03T07:43:09;95844.00;;;14.32;85.19
52797;BME280;38666;43.348;12.584;2023-05-03T07:45:35;95849.66;;;14.01;88.47
52797;BME280;38666;43.348;12.584;2023-05-03T07:48:01;95836.94;;;14.11;87.99
52797;BME280;38666;43.348;12.584;2023-05-03T07:50:28;95851.47;;;14.32;88.21
52797;BME280;38666;43.348;12.584;2023-05-03T07:52:54;95854.25;;;14.52;84.32
52797;BME280;38666;43.348;12.584;2023-05-03T07:55:20;95853.44;;;14.52;83.87
52797;BME280;38666;43.348;12.584;2023-05-03T07:57:46;95851.63;;;14.45;84.76
52797;BME280;38666;43.348;12.584;2023-05-03T08:00:12;95842.84;;;14.74;83.49
52797;BME280;38666;43.348;12.584;2023-05-03T08:02:38;95859.69;;;14.97;82.62
52797;BME280;38666;43.348;12.584;2023-05-03T08:05:04;95856.41;;;15.22;82.32
52797;BME280;38666;43.348;12.584;2023-05-03T08:07:30;95855.28;;;15.20;81.65
52797;BME280;38666;43.348;12.584;2023-05-03T08:13:17;95857.00;;;14.93;83.55
52797;BME280;38666;43.348;12.584;2023-05-03T08:15:43;95856.56;;;14.95;83.77
52797;BME280;38666;43.348;12.584;2023-05-03T08:18:10;95860.53;;;14.94;84.89
52797;BME280;38666;43.348;12.584;2023-05-03T08:20:35;95854.56;;;14.75;86.00
52797;BME280;38666;43.348;12.584;2023-05-03T08:23:01;95856.06;;;15.20;83.42
52797;BME280;38666;43.348;12.584;2023-05-03T08:25:26;95861.41;;;15.27;82.44
52797;BME280;38666;43.348;12.584;2023-05-03T08:27:52;95858.41;;;15.01;82.58
52797;BME280;38666;43.348;12.584;2023-05-03T08:30:19;95870.81;;;15.10;83.46
52797;BME280;38666;43.348;12.584;2023-05-03T08:32:46;95861.72;;;14.72;83.89
52797;BME280;38666;43.348;12.584;2023-05-03T08:35:11;95873.28;;;14.84;84.51
52797;BME280;38666;43.348;12.584;2023-05-03T08:37:39;95872.97;;;15.19;82.69
52797;BME280;38666;43.348;12.584;2023-05-03T08:40:06;95882.13;;;14.71;84.90
52797;BME280;38666;43.348;12.584;2023-05-03T08:42:32;95887.25;;;14.93;83.48
52797;BME280;38666;43.348;12.584;2023-05-03T08:44:58;95888.09;;;14.90;85.33
52797;BME280;38666;43.348;12.584;2023-05-03T08:47:23;95883.00;;;15.09;84.01
52797;BME280;38666;43.348;12.584;2023-05-03T08:49:51;95884.31;;;15.58;82.01
52797;BME280;38666;43.348;12.584;2023-05-03T08:52:17;95891.00;;;15.57;82.78
52797;BME280;38666;43.348;12.584;2023-05-03T08:54:45;95894.75;;;15.67;80.94
52797;BME280;38666;43.348;12.584;2023-05-03T08:57:13;95895.63;;;16.13;77.74
52797;BME280;38666;43.348;12.584;2023-05-03T08:59:49;95897.59;;;15.96;77.59
52797;BME280;38666;43.348;12.584;2023-05-03T09:02:16;95900.75;;;15.78;78.72
52797;BME280;38666;43.348;12.584;2023-05-03T09:04:42;95886.56;;;16.30;75.00
52797;BME280;38666;43.348;12.584;2023-05-03T09:07:11;95892.75;;;16.34;77.03
52797;BME280;38666;43.348;12.584;2023-05-03T09:09:37;95889.78;;;16.58;74.00
52797;BME280;38666;43.348;12.584;2023-05-03T09:12:04;95897.56;;;16.46;74.39
52797;BME280;38666;43.348;12.584;2023-05-03T09:14:30;95905.88;;;16.13;78.01
52797;BME280;38666;43.348;12.584;2023-05-03T09:17:16;95893.84;;;17.13;73.49
52797;BME280;38666;43.348;12.584;2023-05-03T09:22:16;95915.41;;;17.01;71.76
52797;BME280;38666;43.348;12.584;2023-05-03T09:24:50;95918.53;;;16.73;73.74
52797;BME280;38666;43.348;12.584;2023-05-03T09:27:17;95916.06;;;16.63;73.03
52797;BME280;38666;43.348;12.584;2023-05-03T09:29:46;95904.19;;;16.79;71.58
52797;BME280;38666;43.348;12.584;2023-05-03T09:32:12;95903.72;;;16.67;72.45
52797;BME280;38666;43.348;12.584;2023-05-03T09:34:38;95906.47;;;16.67;71.91
52797;BME280;38666;43.348;12.584;2023-05-03T09:37:04;95924.59;;;16.52;72.75
52797;BME280;38666;43.348;12.584;2023-05-03T09:39:29;95924.13;;;16.07;72.66
52797;BME280;38666;43.348;12.584;2023-05-03T09:41:55;95913.75;;;15.94;75.71
52797;BME280;38666;43.348;12.584;2023-05-03T09:47:06;95923.75;;;15.88;76.79
52797;BME280;38666;43.348;12.584;2023-05-03T09:49:33;95930.56;;;16.33;72.80
52797;BME280;38666;43.348;12.584;2023-05-03T09:52:00;95917.03;;;16.39;72.49
52797;BME280;38666;43.348;12.584;2023-05-03T09:54:25;95914.88;;;15.97;75.08
52797;BME280;38666;43.348;12.584;2023-05-03T09:56:52;95914.28;;;15.89;76.03
52797;BME280;38666;43.348;12.584;2023-05-03T09:59:19;95913.31;;;15.96;78.23
52797;BME280;38666;43.348;12.584;2023-05-03T10:01:45;95909.59;;;16.53;72.25
52797;BME280;38666;43.348;12.584;2023-05-03T10:04:14;95915.09;;;16.53;73.13
52797;BME280;38666;43.348;12.584;2023-05-03T10:06:40;95911.63;;;16.65;71.03
52797;BME280;38666;43.348;12.584;2023-05-03T10:09:23;95916.13;;;16.89;68.29
52797;BME280;38666;43.348;12.584;2023-05-03T10:11:52;95920.81;;;16.45;71.72
52797;BME280;38666;43.348;12.584;2023-05-03T10:14:21;95929.91;;;15.59;74.80
52797;BME280;38666;43.348;12.584;2023-05-03T10:17:03;95922.94;;;15.17;79.43
52797;BME280;38666;43.348;12.584;2023-05-03T10:19:34;95919.09;;;15.11;80.29
52797;BME280;38666;43.348;12.584;2023-05-03T10:22:06;95931.03;;;15.04;80.73
52797;BME280;38666;43.348;12.584;2023-05-03T10:24:33;95925.47;;;15.08;80.27
52797;BME280;38666;43.348;12.584;2023-05-03T10:26:59;95920.31;;;14.45;83.27
52797;BME280;38666;43.348;12.584;2023-05-03T10:32:02;95937.72;;;14.59;82.82
52797;BME280;38666;43.348;12.584;2023-05-03T10:34:35;95926.59;;;14.46;83.29
52797;BME280;38666;43.348;12.584;2023-05-03T10:37:09;95923.66;;;14.56;83.58
52797;BME280;38666;43.348;12.584;2023-05-03T10:39:35;95927.03;;;14.88;81.44
52797;BME280;38666;43.348;12.584;2023-05-03T10:42:05;95934.34;;;14.71;82.69
52797;BME280;38666;43.348;12.584;2023-05-03T10:47:18;95920.97;;;15.71;77.88
52797;BME280;38666;43.348;12.584;2023-05-03T10:49:44;95926.47;;;15.71;75.27
52797;BME280;38666;43.348;12.584;2023-05-03T10:55:22;95926.63;;;15.64;76.09
52797;BME280;38666;43.348;12.584;2023-05-03T10:57:53;95925.03;;;15.30;79.05
52797;BME280;38666;43.348;12.584;2023-05-03T11:00:30;95910.78;;;15.35;78.14
52797;BME280;38666;43.348;12.584;2023-05-03T11:05:46;95907.56;;;17.00;71.24
52797;BME280;38666;43.348;12.584;2023-05-03T11:08:17;95908.69;;;16.72;70.07
52797;BME280;38666;43.348;12.584;2023-05-03T11:10:44;95919.59;;;16.63;71.18
52797;BME280;38666;43.348;12.584;2023-05-03T11:13:10;95904.97;;;16.49;70.96
52797;BME280;38666;43.348;12.584;2023-05-03T11:15:36;95913.28;;;16.63;70.41
52797;BME280;38666;43.348;12.584;2023-05-03T11:18:02;95910.41;;;17.26;65.82
52797;BME280;38666;43.348;12.584;2023-05-03T11:20:28;95914.72;;;16.97;69.54
52797;BME280;38666;43.348;12.584;2023-05-03T11:22:55;95914.53;;;17.86;64.89
52797;BME280;38666;43.348;12.584;2023-05-03T11:25:20;95908.69;;;18.46;61.77
52797;BME280;38666;43.348;12.584;2023-05-03T11:27:46;95895.31;;;18.44;59.65
52797;BME280;38666;43.348;12.584;2023-05-03T11:30:12;95889.31;;;18.10;61.14
52797;BME280;38666;43.348;12.584;2023-05-03T11:32:38;95900.22;;;19.07;58.63
52797;BME280;38666;43.348;12.584;2023-05-03T11:35:05;95909.50;;;19.36;56.90
52797;BME280;38666;43.348;12.584;2023-05-03T11:37:32;95908.09;;;19.31;56.30
52797;BME280;38666;43.348;12.584;2023-05-03T11:39:58;95919.75;;;19.90;55.91
52797;BME280;38666;43.348;12.584;2023-05-03T11:42:24;95915.28;;;19.51;54.39
52797;BME280;38666;43.348;12.584;2023-05-03T11:44:53;95918.00;;;18.39;59.87
52797;BME280;38666;43.348;12.584;2023-05-03T11:47:19;95918.06;;;17.74;61.51
52797;BME280;38666;43.348;12.584;2023-05-03T11:49:52;95920.50;;;17.98;62.50
52797;BME280;38666;43.348;12.584;2023-05-03T11:52:25;95909.22;;;16.38;68.38
52797;BME280;38666;43.348;12.584;2023-05-03T11:54:51;95919.56;;;17.23;66.79
52797;BME280;38666;43.348;12.584;2023-05-03T11:57:17;95915.38;;;18.09;62.00
52797;BME280;38666;43.348;12.584;2023-05-03T11:59:43;95921.28;;;18.82;59.38
52797;BME280;38666;43.348;12.584;2023-05-03T12:02:13;95927.53;;;18.96;58.24
52797;BME280;38666;43.348;12.584;2023-05-03T12:04:41;95922.91;;;18.09;61.48
52797;BME280;38666;43.348;12.584;2023-05-03T12:07:09;95923.34;;;18.69;56.62
52797;BME280;38666;43.348;12.584;2023-05-03T12:09:41;95925.44;;;18.64;58.75
52797;BME280;38666;43.348;12.584;2023-05-03T12:12:06;95934.41;;;18.69;57.57
52797;BME280;38666;43.348;12.584;2023-05-03T12:14:54;95931.97;;;18.35;59.85
52797;BME280;38666;43.348;12.584;2023-05-03T12:17:32;95929.63;;;19.91;53.78
52797;BME280;38666;43.348;12.584;2023-05-03T12:20:20;95939.56;;;19.79;54.77
52797;BME280;38666;43.348;12.584;2023-05-03T12:22:54;95935.22;;;19.68;54.81
52797;BME280;38666;43.348;12.584;2023-05-03T12:25:20;95935.53;;;19.39;55.90
52797;BME280;38666;43.348;12.584;2023-05-03T12:27:47;95943.09;;;20.11;54.10
52797;BME280;38666;43.348;12.584;2023-05-03T12:30:13;95943.09;;;20.11;53.63
52797;BME280;38666;43.348;12.584;2023-05-03T12:32:38;95938.69;;;19.05;55.84
52797;BME280;38666;43.348;12.584;2023-05-03T12:35:05;95938.69;;;19.28;57.07
52797;BME280;38666;43.348;12.584;2023-05-03T12:37:31;95928.31;;;18.96;57.38
52797;BME280;38666;43.348;12.584;2023-05-03T12:39:56;95927.50;;;19.63;55.57
52797;BME280;38666;43.348;12.584;2023-05-03T12:42:22;95935.63;;;19.57;55.40
52797;BME280;38666;43.348;12.584;2023-05-03T12:44:47;95937.44;;;20.24;52.93
52797;BME280;38666;43.348;12.584;2023-05-03T12:47:12;95927.34;;;18.90;56.96
52797;BME280;38666;43.348;12.584;2023-05-03T12:49:38;95932.81;;;19.03;58.14
52797;BME280;38666;43.348;12.584;2023-05-03T12:52:04;95935.66;;;19.12;58.25
52797;BME280;38666;43.348;12.584;2023-05-03T12:54:29;95930.81;;;18.46;59.09
52797;BME280;38666;43.348;12.584;2023-05-03T12:56:55;95927.63;;;17.30;64.22
52797;BME280;38666;43.348;12.584;2023-05-03T12:59:20;95926.44;;;18.35;60.17
52797;BME280;38666;43.348;12.584;2023-05-03T13:01:46;95935.94;;;18.08;62.42
52797;BME280;38666;43.348;12.584;2023-05-03T13:04:12;95918.69;;;17.26;65.09
52797;BME280;38666;43.348;12.584;2023-05-03T13:06:38;95925.06;;;18.53;60.78
52797;BME280;38666;43.348;12.584;2023-05-03T13:09:05;95937.41;;;18.61;60.80
52797;BME280;38666;43.348;12.584;2023-05-03T13:11:31;95919.44;;;18.31;60.02
52797;BME280;38666;43.348;12.584;2023-05-03T13:13:56;95932.81;;;17.15;68.15
52797;BME280;38666;43.348;12.584;2023-05-03T13:16:22;95915.28;;;17.22;67.33
52797;BME280;38666;43.348;12.584;2023-05-03T13:18:48;95917.63;;;17.88;65.79
52797;BME280;38666;43.348;12.584;2023-05-03T13:21:19;95906.44;;;17.40;65.60
52797;BME280;38666;43.348;12.584;2023-05-03T13:23:45;95908.69;;;17.71;64.52
52797;BME280;38666;43.348;12.584;2023-05-03T13:26:10;95917.31;;;18.83;58.93
52797;BME280;38666;43.348;12.584;2023-05-03T13:28:36;95909.38;;;18.95;56.48
52797;BME280;38666;43.348;12.584;2023-05-03T13:31:01;95903.06;;;18.72;58.52
52797;BME280;38666;43.348;12.584;2023-05-03T13:33:26;95898.97;;;19.21;56.36
52797;BME280;38666;43.348;12.584;2023-05-03T13:35:53;95897.88;;;19.51;55.53
52797;BME280;38666;43.348;12.584;2023-05-03T13:38:18;95903.53;;;19.79;54.01
52797;BME280;38666;43.348;12.584;2023-05-03T13:40:44;95894.63;;;21.10;50.70
52797;BME280;38666;43.348;12.584;2023-05-03T13:43:09;95894.34;;;21.94;46.64
52797;BME280;38666;43.348;12.584;2023-05-03T13:45:35;95895.44;;;21.44;48.52
52797;BME280;38666;43.348;12.584;2023-05-03T13:48:00;95893.22;;;22.01;47.11
52797;BME280;38666;43.348;12.584;2023-05-03T13:50:28;95891.72;;;22.24;47.15
52797;BME280;38666;43.348;12.584;2023-05-03T13:52:54;95891.91;;;22.45;45.52
52797;BME280;38666;43.348;12.584;2023-05-03T13:55:20;95900.34;;;21.06;48.77
52797;BME280;38666;43.348;12.584;2023-05-03T13:57:46;95900.91;;;19.75;52.85
52797;BME280;38666;43.348;12.584;2023-05-03T14:00:12;95914.78;;;18.98;56.12
52797;BME280;38666;43.348;12.584;2023-05-03T14:02:38;95911.63;;;18.29;58.60
52797;BME280;38666;43.348;12.584;2023-05-03T14:05:04;95912.31;;;17.42;63.27
52797;BME280;38666;43.348;12.584;2023-05-03T14:07:29;95905.50;;;16.28;67.81
52797;BME280;38666;43.348;12.584;2023-05-03T14:09:55;95916.78;;;16.33;69.49
52797;BME280;38666;43.348;12.584;2023-05-03T14:12:22;95916.53;;;16.28;68.60
52797;BME280;38666;43.348;12.584;2023-05-03T14:14:47;95912.66;;;16.25;68.48
52797;BME280;38666;43.348;12.584;2023-05-03T14:17:13;95925.31;;;16.22;69.97
52797;BME280;38666;43.348;12.584;2023-05-03T14:19:38;95915.84;;;15.90;70.88
52797;BME280;38666;43.348;12.584;2023-05-03T14:22:04;95919.22;;;16.15;70.27
52797;BME280;38666;43.348;12.584;2023-05-03T14:24:29;95926.16;;;15.86;71.26
52797;BME280;38666;43.348;12.584;2023-05-03T14:26:57;95925.91;;;15.97;72.84
52797;BME280;38666;43.348;12.584;2023-05-03T14:29:24;95929.41;;;15.97;71.61
52797;BME280;38666;43.348;12.584;2023-05-03T14:31:49;95924.06;;;14.99;74.97
52797;BME280;38666;43.348;12.584;2023-05-03T14:34:15;95933.78;;;15.04;76.62
52797;BME280;38666;43.348;12.584;2023-05-03T14:36:41;95923.72;;;14.73;77.31
52797;BME280;38666;43.348;12.584;2023-05-03T14:39:08;95925.69;;;14.97;76.32
52797;BME280;38666;43.348;12.584;2023-05-03T14:41:34;95932.72;;;15.18;75.98
52797;BME280;38666;43.348;12.584;2023-05-03T14:43:59;95924.69;;;15.27;75.93
52797;BME280;38666;43.348;12.584;2023-05-03T14:46:25;95928.19;;;15.28;75.48
52797;BME280;38666;43.348;12.584;2023-05-03T14:48:50;95922.13;;;14.96;75.45
52797;BME280;38666;43.348;12.584;2023-05-03T14:51:16;95925.81;;;14.89;77.12
52797;BME280;38666;43.348;12.584;2023-05-03T14:53:42;95921.22;;;14.83;77.99
52797;BME280;38666;43.348;12.584;2023-05-03T14:56:07;95927.44;;;14.87;78.03
52797;BME280;38666;43.348;12.584;2023-05-03T14:58:32;95937.56;;;15.10;76.70
52797;BME280;38666;43.348;12.584;2023-05-03T15:00:58;95936.81;;;14.89;76.99
52797;BME280;38666;43.348;12.584;2023-05-03T15:03:24;95933.13;;;14.96;76.20
52797;BME280;38666;43.348;12.584;2023-05-03T15:05:50;95938.94;;;15.02;76.38
52797;BME280;38666;43.348;12.584;2023-05-03T15:08:17;95940.63;;;14.96;77.07
52797;BME280;38666;43.348;12.584;2023-05-03T15:10:43;95934.56;;;14.84;77.01
52797;BME280;38666;43.348;12.584;2023-05-03T15:13:10;95939.72;;;14.58;78.98
52797;BME280;38666;43.348;12.584;2023-05-03T15:15:36;95940.63;;;14.96;76.92
52797;BME280;38666;43.348;12.584;2023-05-03T15:18:02;95939.06;;;14.95;76.68
52797;BME280;38666;43.348;12.584;2023-05-03T15:20:28;95928.31;;;15.21;74.90
52797;BME280;38666;43.348;12.584;2023-05-03T15:22:53;95945.31;;;15.36;75.59
52797;BME280;38666;43.348;12.584;2023-05-03T15:25:19;95947.63;;;15.74;72.73
52797;BME280;38666;43.348;12.584;2023-05-03T15:27:44;95943.50;;;15.66;72.43
52797;BME280;38666;43.348;12.584;2023-05-03T15:30:10;95940.25;;;15.71;72.26
52797;BME280;38666;43.348;12.584;2023-05-03T15:32:36;95951.59;;;15.73;71.30
52797;BME280;38666;43.348;12.584;2023-05-03T15:35:02;95945.03;;;15.67;71.28
52797;BME280;38666;43.348;12.584;2023-05-03T15:37:33;95953.00;;;15.98;69.51
52797;BME280;38666;43.348;12.584;2023-05-03T15:40:06;95947.66;;;15.91;68.66
52797;BME280;38666;43.348;12.584;2023-05-03T15:42:33;95951.47;;;15.44;72.80
52797;BME280;38666;43.348;12.584;2023-05-03T15:44:59;95948.06;;;15.73;70.31
52797;BME280;38666;43.348;12.584;2023-05-03T15:47:24;95953.00;;;15.82;70.65
52797;BME280;38666;43.348;12.584;2023-05-03T15:49:51;95947.44;;;15.48;71.49
52797;BME280;38666;43.348;12.584;2023-05-03T15:52:16;95948.22;;;15.28;71.24
52797;BME280;38666;43.348;12.584;2023-05-03T15:54:41;95949.22;;;15.75;69.01
52797;BME280;38666;43.348;12.584;2023-05-03T15:57:07;95950.09;;;16.39;66.80
52797;BME280;38666;43.348;12.584;2023-05-03T15:59:32;95950.09;;;16.39;65.48
52797;BME280;38666;43.348;12.584;2023-05-03T16:01:58;95959.66;;;16.51;65.15
52797;BME280;38666;43.348;12.584;2023-05-03T16:04:23;95959.06;;;16.43;64.51
52797;BME280;38666;43.348;12.584;2023-05-03T16:06:49;95952.63;;;15.63;69.18
52797;BME280;38666;43.348;12.584;2023-05-03T16:09:15;95953.81;;;15.99;66.81
52797;BME280;38666;43.348;12.584;2023-05-03T16:11:40;95952.69;;;16.46;65.68
52797;BME280;38666;43.348;12.584;2023-05-03T16:14:06;95953.22;;;16.41;65.41
52797;BME280;38666;43.348;12.584;2023-05-03T16:16:36;95944.00;;;17.63;59.64
52797;BME280;38666;43.348;12.584;2023-05-03T16:19:03;95956.38;;;18.85;53.99
52797;BME280;38666;43.348;12.584;2023-05-03T16:21:29;95940.50;;;20.17;50.85
52797;BME280;38666;43.348;12.584;2023-05-03T16:23:56;95958.03;;;19.50;50.97
52797;BME280;38666;43.348;12.584;2023-05-03T16:26:22;95939.56;;;20.20;48.94
52797;BME280;38666;43.348;12.584;2023-05-03T16:28:48;95949.41;;;18.81;52.83
52797;BME280;38666;43.348;12.584;2023-05-03T16:31:27;95949.63;;;19.31;50.87
52797;BME280;38666;43.348;12.584;2023-05-03T16:33:52;95948.13;;;18.59;53.78
52797;BME280;38666;43.348;12.584;2023-05-03T16:36:18;95950.47;;;18.96;51.59
52797;BME280;38666;43.348;12.584;2023-05-03T16:38:44;95961.59;;;17.83;56.08
52797;BME280;38666;43.348;12.584;2023-05-03T16:41:09;95959.25;;;17.81;55.64
52797;BME280;38666;43.348;12.584;2023-05-03T16:43:34;95956.84;;;17.14;58.74
52797;BME280;38666;43.348;12.584;2023-05-03T16:46:00;95959.53;;;17.31;58.80
52797;BME280;38666;43.348;12.584;2023-05-03T16:48:29;95956.34;;;17.32;59.68
52797;BME280;38666;43.348;12.584;2023-05-03T16:50:55;95962.53;;;17.07;60.35
52797;BME280;38666;43.348;12.584;2023-05-03T16:53:21;95968.97;;;16.57;61.98
52797;BME280;38666;43.348;12.584;2023-05-03T16:55:46;95975.94;;;16.45;62.14
52797;BME280;38666;43.348;12.584;2023-05-03T16:58:12;95959.25;;;16.19;62.69
52797;BME280;38666;43.348;12.584;2023-05-03T17:00:37;95972.94;;;15.69;65.65
52797;BME280;38666;43.348;12.584;2023-05-03T17:03:05;95969.44;;;15.48;67.42
52797;BME280;38666;43.348;12.584;2023-05-03T17:05:31;95971.25;;;15.92;65.36
52797;BME280;38666;43.348;12.584;2023-05-03T17:08:00;95973.13;;;15.79;66.27
52797;BME280;38666;43.348;12.584;2023-05-03T17:10:27;95962.34;;;15.68;66.12
52797;BME280;38666;43.348;12.584;2023-05-03T17:12:53;95971.06;;;15.46;67.20
52797;BME280;38666;43.348;12.584;2023-05-03T17:15:24;95971.13;;;15.42;67.50
52797;BME280;38666;43.348;12.584;2023-05-03T17:17:49;95975.44;;;15.23;68.47
52797;BME280;38666;43.348;12.584;2023-05-03T17:20:16;95965.16;;;15.07;68.06
52797;BME280;38666;43.348;12.584;2023-05-03T17:22:41;95968.75;;;15.03;68.96
52797;BME280;38666;43.348;12.584;2023-05-03T17:25:07;95979.75;;;15.03;68.72
52797;BME280;38666;43.348;12.584;2023-05-03T17:27:34;95970.81;;;14.99;69.96
52797;BME280;38666;43.348;12.584;2023-05-03T17:30:00;95987.44;;;14.92;69.02
52797;BME280;38666;43.348;12.584;2023-05-03T17:32:25;95992.81;;;14.75;69.48
52797;BME280;38666;43.348;12.584;2023-05-03T17:34:51;95983.63;;;14.62;70.65
52797;BME280;38666;43.348;12.584;2023-05-03T17:37:16;95997.97;;;14.49;70.86
52797;BME280;38666;43.348;12.584;2023-05-03T17:39:42;95998.97;;;14.35;71.08
52797;BME280;38666;43.348;12.584;2023-05-03T17:42:08;95992.75;;;14.31;71.22
52797;BME280;38666;43.348;12.584;2023-05-03T17:44:33;95993.53;;;14.31;70.35
52797;BME280;38666;43.348;12.584;2023-05-03T17:46:59;95994.91;;;13.92;72.19
52797;BME280;38666;43.348;12.584;2023-05-03T17:49:25;95991.44;;;13.88;72.34
52797;BME280;38666;43.348;12.584;2023-05-03T17:51:50;95998.13;;;13.87;72.43
52797;BME280;38666;43.348;12.584;2023-05-03T17:54:16;95991.78;;;13.90;72.54
52797;BME280;38666;43.348;12.584;2023-05-03T17:56:43;95998.13;;;13.87;72.80
52797;BME280;38666;43.348;12.584;2023-05-03T17:59:08;95994.41;;;13.69;73.08
52797;BME280;38666;43.348;12.584;2023-05-03T18:01:34;95994.28;;;13.49;73.68
52797;BME280;38666;43.348;12.584;2023-05-03T18:03:59;95996.22;;;13.48;74.12
52797;BME280;38666;43.348;12.584;2023-05-03T18:06:25;95994.81;;;13.36;74.14
52797;BME280;38666;43.348;12.584;2023-05-03T18:08:52;95995.66;;;13.33;74.44
52797;BME280;38666;43.348;12.584;2023-05-03T18:11:17;95991.94;;;13.12;75.59
52797;BME280;38666;43.348;12.584;2023-05-03T18:13:43;95999.81;;;13.10;75.81
52797;BME280;38666;43.348;12.584;2023-05-03T18:16:09;96010.56;;;12.94;76.66
52797;BME280;38666;43.348;12.584;2023-05-03T18:18:35;96003.09;;;12.98;76.79
52797;BME280;38666;43.348;12.584;2023-05-03T18:21:03;95999.16;;;12.99;76.94
52797;BME280;38666;43.348;12.584;2023-05-03T18:23:29;96003.19;;;12.87;76.38
52797;BME280;38666;43.348;12.584;2023-05-03T18:25:55;95998.56;;;12.80;76.98
52797;BME280;38666;43.348;12.584;2023-05-03T18:28:20;96001.72;;;12.75;76.30
52797;BME280;38666;43.348;12.584;2023-05-03T18:30:47;96000.19;;;12.74;76.12
52797;BME280;38666;43.348;12.584;2023-05-03T18:33:13;96004.13;;;12.73;76.33
52797;BME280;38666;43.348;12.584;2023-05-03T18:35:38;96010.22;;;12.88;75.84
52797;BME280;38666;43.348;12.584;2023-05-03T18:38:04;96008.56;;;12.98;74.56
52797;BME280;38666;43.348;12.584;2023-05-03T18:40:29;96008.28;;;12.88;74.95
52797;BME280;38666;43.348;12.584;2023-05-03T18:42:55;96012.69;;;12.75;75.13
52797;BME280;38666;43.348;12.584;2023-05-03T18:45:21;96021.44;;;12.62;75.78
52797;BME280;38666;43.348;12.584;2023-05-03T18:47:47;96019.13;;;12.57;75.97
52797;BME280;38666;43.348;12.584;2023-05-03T18:50:12;96019.19;;;12.50;75.87
